Time;durP1;ratioP1;P1;durP2;ratioP2;P2;SDS_P1;SDS_P2;PMS_P1;PMS_P2;Temp;Humidity;BMP_temperature;BMP_pressure;BME280_temperature;BME280_humidity;BME280_pressure;Samples;Min_cycle;Max_cycle;Signal;HPM_P1;HPM_P2
2020/12/30 00:00:50;;;;;;;3.33;1.67;;;;;;;-1.49;90.65;99226.47;5023664;28;20208;-78
2020/12/30 00:03:16;;;;;;;3.50;1.60;;;;;;;-1.50;90.75;99225.59;5024181;28;20231;-78
2020/12/30 00:05:42;;;;;;;2.17;1.50;;;;;;;-1.46;91.06;99221.34;5025067;28;20200;-78
2020/12/30 00:08:09;;;;;;;2.10;1.43;;;;;;;-1.48;90.78;99229.00;5025811;28;20204;-78
2020/12/30 00:10:35;;;;;;;3.13;2.00;;;;;;;-1.49;90.54;99227.31;5024038;28;20264;-78
2020/12/30 00:13:01;;;;;;;2.23;1.57;;;;;;;-1.47;90.69;99225.59;5057100;28;20219;-78
2020/12/30 00:15:27;;;;;;;2.00;1.57;;;;;;;-1.46;90.44;99224.75;5022995;28;20208;-78
2020/12/30 00:17:53;;;;;;;2.13;1.83;;;;;;;-1.47;90.44;99232.44;5026365;28;20206;-78
2020/12/30 00:20:20;;;;;;;1.73;1.50;;;;;;;-1.55;90.06;99230.72;5019348;28;20214;-77
2020/12/30 00:22:47;;;;;;;2.83;1.67;;;;;;;-1.57;90.12;99229.00;5051463;28;20322;-78
2020/12/30 00:25:14;;;;;;;1.70;1.60;;;;;;;-1.61;90.62;99228.16;5026736;28;20199;-78
2020/12/30 00:27:42;;;;;;;2.30;1.63;;;;;;;-1.67;90.50;99220.50;5025781;28;20189;-78
2020/12/30 00:30:09;;;;;;;2.60;1.83;;;;;;;-1.68;90.60;99223.03;5024743;28;20522;-78
2020/12/30 00:32:35;;;;;;;2.93;2.00;;;;;;;-1.72;90.94;99232.41;5024297;28;20783;-78
2020/12/30 00:35:01;;;;;;;2.07;1.80;;;;;;;-1.74;90.87;99234.13;5024390;28;20615;-78
2020/12/30 00:37:27;;;;;;;2.57;1.90;;;;;;;-1.79;90.94;99238.38;5024329;28;20500;-78
2020/12/30 00:39:53;;;;;;;3.03;2.00;;;;;;;-1.87;91.08;99234.94;5026008;28;20238;-78
2020/12/30 00:42:20;;;;;;;2.93;1.80;;;;;;;-1.91;91.48;99240.03;5022583;28;20234;-78
2020/12/30 00:44:46;;;;;;;2.23;1.97;;;;;;;-1.99;91.34;99231.47;5020639;28;20207;-77
2020/12/30 00:47:14;;;;;;;2.23;1.80;;;;;;;-1.93;92.34;99223.00;5024017;28;20504;-78
2020/12/30 00:49:40;;;;;;;2.07;1.80;;;;;;;-1.96;92.54;99228.09;5025656;28;20239;-78
2020/12/30 00:52:08;;;;;;;2.87;2.10;;;;;;;-2.02;93.43;99221.28;5023630;28;20276;-78
2020/12/30 00:54:41;;;;;;;2.77;1.77;;;;;;;-2.10;93.18;99222.94;5022241;28;20237;-78
2020/12/30 00:57:14;;;;;;;2.03;1.77;;;;;;;-2.13;93.42;99223.81;5020595;28;20750;-78
2020/12/30 00:59:40;;;;;;;2.20;1.80;;;;;;;-2.20;94.02;99222.09;5026791;28;20200;-78
2020/12/30 01:02:07;;;;;;;2.27;1.70;;;;;;;-2.24;94.36;99227.16;5020212;28;20220;-78
2020/12/30 01:04:37;;;;;;;2.03;1.80;;;;;;;-2.28;94.94;99227.16;5023600;28;20253;-77
2020/12/30 01:07:03;;;;;;;1.70;1.60;;;;;;;-2.32;95.18;99224.59;5027555;28;20469;-77
2020/12/30 01:09:29;;;;;;;3.07;1.77;;;;;;;-2.35;95.10;99225.44;5030440;28;20630;-78
2020/12/30 01:11:59;;;;;;;2.40;1.67;;;;;;;-2.37;95.29;99231.38;5031033;28;20223;-78
2020/12/30 01:14:25;;;;;;;2.70;1.63;;;;;;;-2.32;96.81;99233.09;5031705;28;20453;-78
2020/12/30 01:16:53;;;;;;;2.97;1.90;;;;;;;-2.29;97.75;99240.78;5032902;28;20226;-78
2020/12/30 01:19:19;;;;;;;2.07;1.70;;;;;;;-2.36;97.67;99245.84;5034233;28;20714;-78
2020/12/30 01:21:45;;;;;;;3.23;1.80;;;;;;;-2.35;98.16;99245.84;5030309;28;20482;-78
2020/12/30 01:24:11;;;;;;;2.43;1.73;;;;;;;-2.43;98.10;99242.41;5032273;28;20478;-78
2020/12/30 01:26:38;;;;;;;1.70;1.50;;;;;;;-2.47;97.97;99254.28;5030407;28;20456;-78
2020/12/30 01:29:04;;;;;;;2.27;1.60;;;;;;;-2.51;97.55;99255.13;5059258;28;20957;-78
2020/12/30 01:31:31;;;;;;;2.33;1.60;;;;;;;-2.50;97.43;99255.97;5028437;28;20484;-77
2020/12/30 01:33:58;;;;;;;1.67;1.37;;;;;;;-2.42;97.49;99246.66;5031468;28;20471;-78
2020/12/30 01:36:24;;;;;;;1.87;1.37;;;;;;;-2.38;96.80;99243.28;5029675;28;20470;-78
2020/12/30 01:38:51;;;;;;;2.53;1.50;;;;;;;-2.35;96.79;99245.00;5031991;28;20997;-77
2020/12/30 01:41:17;;;;;;;2.70;2.00;;;;;;;-2.31;96.94;99250.09;5029373;28;20238;-78
2020/12/30 01:43:56;;;;;;;3.03;1.57;;;;;;;-2.26;96.87;99249.28;5056629;28;20445;-77
2020/12/30 01:46:32;;;;;;;2.00;1.80;;;;;;;-2.22;96.49;99248.44;5030010;28;20520;-78
2020/12/30 01:49:00;;;;;;;1.77;1.60;;;;;;;-2.14;96.90;99255.28;5027989;28;20529;-78
2020/12/30 01:51:26;;;;;;;2.60;1.70;;;;;;;-2.14;96.74;99250.19;5028004;28;20504;-78
2020/12/30 01:53:52;;;;;;;2.00;1.70;;;;;;;-2.09;96.70;99252.75;5031329;28;20198;-78
2020/12/30 01:56:19;;;;;;;4.73;1.80;;;;;;;-2.03;97.00;99250.22;5030807;28;20472;-78
2020/12/30 01:58:45;;;;;;;2.13;1.87;;;;;;;-2.00;96.70;99246.84;5030737;28;20203;-78
2020/12/30 02:01:11;;;;;;;2.23;1.70;;;;;;;-1.93;97.32;99244.28;5030069;28;20203;-78
2020/12/30 02:03:38;;;;;;;2.17;1.80;;;;;;;-1.87;97.75;99240.88;5032335;28;20211;-78
2020/12/30 02:06:05;;;;;;;3.20;2.10;;;;;;;-1.87;97.09;99246.00;5029018;28;20577;-78
2020/12/30 02:08:31;;;;;;;2.50;2.00;;;;;;;-1.79;97.74;99248.59;5032965;28;20212;-77
2020/12/30 02:10:57;;;;;;;4.33;2.10;;;;;;;-1.78;97.11;99255.38;5029677;28;20372;-78
2020/12/30 02:13:24;;;;;;;3.73;2.43;;;;;;;-1.73;96.95;99246.03;5031360;28;20203;-78
2020/12/30 02:15:50;;;;;;;3.70;2.43;;;;;;;-1.70;97.00;99243.47;5026549;28;20934;-78
2020/12/30 02:18:16;;;;;;;2.50;2.23;;;;;;;-1.65;96.73;99241.78;5030539;28;20225;-78
2020/12/30 02:20:42;;;;;;;5.20;2.17;;;;;;;-1.59;97.13;99235.81;5030064;28;20218;-78
2020/12/30 02:23:09;;;;;;;4.63;2.50;;;;;;;-1.59;96.50;99240.94;5032131;28;20223;-78
2020/12/30 02:25:37;;;;;;;4.17;2.60;;;;;;;-1.58;96.75;99235.81;5019145;28;20223;-78
2020/12/30 02:28:03;;;;;;;2.90;2.20;;;;;;;-1.54;97.11;99239.22;5025360;28;20283;-78
2020/12/30 02:30:29;;;;;;;2.23;2.00;;;;;;;-1.56;96.50;99238.38;5029087;28;20262;-78
2020/12/30 02:32:55;;;;;;;2.90;1.97;;;;;;;-1.54;96.08;99234.13;5028135;28;20224;-78
2020/12/30 02:35:22;;;;;;;4.13;2.20;;;;;;;-1.48;96.01;99241.78;5030332;28;20467;-78
2020/12/30 02:37:48;;;;;;;3.10;2.00;;;;;;;-1.46;96.03;99241.78;5055446;28;20660;-78
2020/12/30 02:40:14;;;;;;;3.00;2.00;;;;;;;-1.43;96.17;99240.09;5031494;28;20287;-78
2020/12/30 02:42:41;;;;;;;2.37;1.83;;;;;;;-1.41;95.84;99242.63;5029267;28;20583;-78
2020/12/30 02:45:09;;;;;;;2.97;2.33;;;;;;;-1.40;96.05;99240.09;5031089;28;20196;-78
2020/12/30 02:47:35;;;;;;;4.47;2.33;;;;;;;-1.37;95.61;99241.81;5029488;28;20219;-78
2020/12/30 02:50:02;;;;;;;3.17;2.10;;;;;;;-1.37;95.52;99246.94;5029911;28;20755;-78
2020/12/30 02:52:28;;;;;;;2.13;1.77;;;;;;;-1.36;95.66;99241.78;5029968;28;20580;-78
2020/12/30 02:54:54;;;;;;;3.23;1.90;;;;;;;-1.31;96.44;99233.28;5028357;28;20286;-78
2020/12/30 02:57:20;;;;;;;3.33;2.10;;;;;;;-1.32;96.18;99232.41;5057641;28;20766;-78
2020/12/30 02:59:47;;;;;;;2.47;1.87;;;;;;;-1.30;96.56;99229.84;5031250;28;20200;-78
2020/12/30 03:02:13;;;;;;;3.13;2.13;;;;;;;-1.33;96.39;99236.69;5025794;28;20247;-78
2020/12/30 03:04:39;;;;;;;2.53;1.90;;;;;;;-1.31;96.24;99241.78;5031432;28;20763;-78
2020/12/30 03:07:05;;;;;;;2.87;1.90;;;;;;;-1.31;96.48;99252.03;5043926;28;20281;-78
2020/12/30 03:09:31;;;;;;;3.57;1.90;;;;;;;-1.32;96.99;99245.19;5030678;28;20249;-78
2020/12/30 03:11:57;;;;;;;3.27;2.03;;;;;;;-1.31;97.45;99251.19;5027510;28;20244;-78
2020/12/30 03:14:23;;;;;;;2.50;1.90;;;;;;;-1.34;97.67;99254.56;5029161;28;20787;-78
2020/12/30 03:16:49;;;;;;;3.10;2.00;;;;;;;-1.47;96.46;99258.00;5027756;28;20242;-78
2020/12/30 03:19:15;;;;;;;3.37;1.73;;;;;;;-1.57;96.03;99250.28;5031679;28;20234;-77
2020/12/30 03:21:41;;;;;;;3.47;2.03;;;;;;;-1.67;96.16;99256.28;5029516;28;20228;-78
2020/12/30 03:24:07;;;;;;;4.33;1.80;;;;;;;-1.74;95.78;99255.41;5030160;28;20200;-78
2020/12/30 03:26:35;;;;;;;3.80;1.93;;;;;;;-1.77;95.72;99257.94;5027994;28;20200;-78
2020/12/30 03:29:01;;;;;;;2.40;1.80;;;;;;;-1.80;96.00;99252.81;5029206;28;20283;-78
2020/12/30 03:31:27;;;;;;;2.40;1.70;;;;;;;-1.84;96.30;99255.38;5026338;28;20286;-78
2020/12/30 03:33:54;;;;;;;2.60;1.87;;;;;;;-1.86;97.12;99255.38;5025553;28;20224;-78
2020/12/30 03:36:20;;;;;;;2.30;1.90;;;;;;;-1.84;97.44;99260.50;5026832;28;20204;-78
2020/12/30 03:38:46;;;;;;;2.03;1.60;;;;;;;-1.91;97.64;99263.03;5028094;28;20199;-78
2020/12/30 03:41:12;;;;;;;2.50;1.83;;;;;;;-2.03;97.44;99267.25;5052423;28;20197;-78
2020/12/30 03:43:37;;;;;;;1.87;1.60;;;;;;;-2.10;97.58;99267.22;5024115;28;20545;-77
2020/12/30 03:46:03;;;;;;;2.63;2.03;;;;;;;-2.14;98.03;99264.66;5023050;28;20200;-78
2020/12/30 03:48:29;;;;;;;2.10;1.50;;;;;;;-2.14;98.96;99270.63;5027812;28;20786;-78
2020/12/30 03:50:56;;;;;;;3.17;1.80;;;;;;;-2.19;98.92;99261.25;5025484;28;20584;-78
2020/12/30 03:53:22;;;;;;;2.73;2.00;;;;;;;-2.34;98.39;99267.13;5026973;28;20515;-78
2020/12/30 03:55:47;;;;;;;2.00;1.70;;;;;;;-2.37;99.14;99275.63;5025246;28;20545;-77
2020/12/30 03:58:13;;;;;;;2.87;1.50;;;;;;;-2.38;99.45;99275.63;5026985;28;20195;-78
2020/12/30 04:00:39;;;;;;;2.17;1.70;;;;;;;-2.43;99.54;99278.13;5027760;28;20214;-78
2020/12/30 04:03:05;;;;;;;2.50;2.10;;;;;;;-2.45;99.68;99279.84;5024925;28;20583;-77
2020/12/30 04:05:31;;;;;;;2.00;1.80;;;;;;;-2.48;99.35;99283.25;5022252;28;20726;-78
2020/12/30 04:07:57;;;;;;;1.70;1.60;;;;;;;-2.46;99.84;99283.25;5028615;28;20659;-78
2020/12/30 04:10:23;;;;;;;2.73;1.80;;;;;;;-2.48;99.20;99278.13;5025871;28;20683;-78
2020/12/30 04:12:49;;;;;;;3.70;1.60;;;;;;;-2.41;99.73;99284.13;5027348;28;20224;-78
2020/12/30 04:15:15;;;;;;;5.13;1.83;;;;;;;-2.45;99.38;99284.09;5028742;28;20254;-78
2020/12/30 04:17:41;;;;;;;3.60;2.00;;;;;;;-2.40;100.00;99283.28;5026976;28;20206;-78
2020/12/30 04:20:06;;;;;;;1.90;1.70;;;;;;;-2.41;99.64;99285.81;5028792;28;20211;-78
2020/12/30 04:22:32;;;;;;;1.67;1.30;;;;;;;-2.38;99.06;99288.38;5025876;28;20761;-78
2020/12/30 04:24:59;;;;;;;2.83;1.87;;;;;;;-2.30;98.87;99286.72;5029125;28;20575;-77
2020/12/30 04:27:25;;;;;;;2.10;1.60;;;;;;;-2.29;98.70;99291.84;5027485;28;20273;-78
2020/12/30 04:29:51;;;;;;;2.03;1.60;;;;;;;-2.31;98.28;99296.06;5028218;28;20670;-78
2020/12/30 04:32:16;;;;;;;3.17;1.67;;;;;;;-2.28;98.34;99300.34;5027235;28;20518;-77
2020/12/30 04:34:42;;;;;;;2.27;1.60;;;;;;;-2.33;98.18;99297.75;5028717;28;20569;-78
2020/12/30 04:37:08;;;;;;;1.93;1.70;;;;;;;-2.32;98.14;99293.53;5027228;28;20199;-78
2020/12/30 04:39:34;;;;;;;3.53;2.00;;;;;;;-2.34;98.31;99295.19;5029046;28;20512;-78
2020/12/30 04:42:01;;;;;;;2.40;1.57;;;;;;;-2.39;98.13;99299.44;5026771;28;20232;-78
2020/12/30 04:44:31;;;;;;;1.47;1.33;;;;;;;-2.44;98.14;99299.44;5027929;28;20230;-78
2020/12/30 04:46:57;;;;;;;2.67;1.90;;;;;;;-2.48;97.89;99302.78;5026453;28;20214;-78
2020/12/30 04:49:23;;;;;;;2.17;1.63;;;;;;;-2.49;98.09;99308.75;5030215;28;20260;-78
2020/12/30 04:51:49;;;;;;;3.87;1.77;;;;;;;-2.50;98.46;99307.03;5030609;28;20494;-78
2020/12/30 04:54:15;;;;;;;2.97;1.87;;;;;;;-2.53;98.63;99301.94;5032024;28;20218;-78
2020/12/30 04:56:57;;;;;;;4.43;2.20;;;;;;;-2.59;98.77;99302.72;5033009;28;20549;-78
2020/12/30 04:59:27;;;;;;;2.13;1.73;;;;;;;-2.60;99.37;99298.50;5038112;28;20217;-78
2020/12/30 05:02:02;;;;;;;2.03;1.80;;;;;;;-2.62;99.60;99296.75;5038268;28;20211;-78
2020/12/30 05:04:29;;;;;;;2.13;1.93;;;;;;;-2.67;99.16;99307.78;5040711;28;20991;-77
2020/12/30 05:06:59;;;;;;;2.70;1.67;;;;;;;-2.68;99.53;99311.19;5038128;28;20198;-78
2020/12/30 05:09:26;;;;;;;2.03;1.50;;;;;;;-2.68;99.86;99311.19;5039644;28;20493;-78
2020/12/30 05:11:52;;;;;;;2.63;1.93;;;;;;;-2.66;99.96;99318.84;5038295;28;20488;-78
2020/12/30 05:14:17;;;;;;;2.37;2.03;;;;;;;-2.69;99.81;99312.03;5036316;28;21016;-78
2020/12/30 05:16:44;;;;;;;1.90;1.73;;;;;;;-2.64;100.00;99324.81;5033412;28;20555;-78
2020/12/30 05:19:10;;;;;;;4.53;2.23;;;;;;;-2.64;100.00;99322.25;5039928;28;20225;-78
2020/12/30 05:21:36;;;;;;;2.10;1.80;;;;;;;-2.64;100.00;99324.81;5033130;28;20472;-78
2020/12/30 05:24:02;;;;;;;2.77;2.20;;;;;;;-2.70;99.66;99335.00;5032931;28;20203;-78
2020/12/30 05:26:28;;;;;;;2.47;1.80;;;;;;;-2.73;99.88;99330.72;5047351;28;20214;-78
2020/12/30 05:28:54;;;;;;;2.97;2.13;;;;;;;-2.76;99.79;99333.25;5036551;28;20484;-78
2020/12/30 05:31:20;;;;;;;3.03;1.87;;;;;;;-2.76;99.97;99330.72;5047761;28;20614;-78
2020/12/30 05:33:47;;;;;;;4.10;2.27;;;;;;;-2.77;99.95;99326.44;5032284;28;20468;-78
2020/12/30 05:36:14;;;;;;;2.73;1.80;;;;;;;-2.77;100.00;99329.00;5030740;28;20211;-78
2020/12/30 05:38:40;;;;;;;3.17;1.90;;;;;;;-2.78;100.00;99337.50;5034679;28;20465;-78
2020/12/30 05:41:17;;;;;;;2.50;1.87;;;;;;;-2.80;100.00;99334.06;5031401;28;20555;-78
2020/12/30 05:43:43;;;;;;;4.07;1.90;;;;;;;-2.84;99.96;99341.69;5055376;28;20457;-78
2020/12/30 05:46:08;;;;;;;2.67;1.80;;;;;;;-2.85;100.00;99348.47;5030124;28;20763;-78
2020/12/30 05:48:35;;;;;;;2.87;1.80;;;;;;;-2.87;100.00;99345.94;5033608;28;20210;-78
2020/12/30 05:51:01;;;;;;;1.93;1.40;;;;;;;-2.87;100.00;99348.50;5030417;28;20222;-78
2020/12/30 05:53:27;;;;;;;2.50;1.93;;;;;;;-2.88;100.00;99349.31;5033370;28;20495;-78
2020/12/30 05:56:08;;;;;;;2.97;1.77;;;;;;;-2.89;100.00;99344.22;5032805;28;20465;-78
2020/12/30 05:58:36;;;;;;;2.13;1.80;;;;;;;-2.88;100.00;99351.88;5029361;28;20213;-78
2020/12/30 06:01:23;;;;;;;1.67;1.53;;;;;;;-2.89;100.00;99356.97;5033049;28;20465;-78
2020/12/30 06:03:49;;;;;;;4.50;1.67;;;;;;;-2.91;100.00;99351.00;5031115;28;20465;-78
2020/12/30 06:06:20;;;;;;;2.23;1.70;;;;;;;-2.92;100.00;99359.47;5031389;28;20468;-78
2020/12/30 06:08:48;;;;;;;2.20;1.53;;;;;;;-2.96;100.00;99353.50;5031940;28;20209;-78
2020/12/30 06:11:23;;;;;;;2.17;1.60;;;;;;;-2.98;100.00;99354.34;5030012;28;21008;-78
2020/12/30 06:13:52;;;;;;;2.00;1.53;;;;;;;-2.95;100.00;99351.81;5034699;28;20932;-78
2020/12/30 06:16:20;;;;;;;3.00;2.03;;;;;;;-2.98;100.00;99360.28;5030853;28;20452;-78
2020/12/30 06:18:48;;;;;;;2.30;1.77;;;;;;;-2.99;100.00;99356.03;5028830;28;20515;-78
2020/12/30 06:21:16;;;;;;;2.47;2.00;;;;;;;-3.02;100.00;99373.88;5030091;28;20481;-78
2020/12/30 06:23:43;;;;;;;3.30;2.30;;;;;;;-3.05;100.00;99376.38;5036330;28;20491;-78
2020/12/30 06:26:17;;;;;;;3.27;2.30;;;;;;;-3.05;100.00;99374.69;5031312;28;20477;-78
2020/12/30 06:28:49;;;;;;;4.93;2.80;;;;;;;-3.04;100.00;99383.19;5031805;28;20472;-78
2020/12/30 06:31:15;;;;;;;3.73;2.43;;;;;;;-3.07;100.00;99378.06;5031466;28;20496;-78
2020/12/30 06:33:41;;;;;;;3.77;2.23;;;;;;;-3.07;100.00;99384.00;5033843;28;20468;-78
2020/12/30 06:36:07;;;;;;;3.30;2.03;;;;;;;-3.09;100.00;99393.34;5031118;28;20448;-78
2020/12/30 06:38:34;;;;;;;2.83;1.97;;;;;;;-3.09;100.00;99384.84;5031177;28;20903;-78
2020/12/30 06:41:01;;;;;;;3.53;1.90;;;;;;;-3.11;100.00;99394.19;5030385;28;20206;-78
2020/12/30 06:43:41;;;;;;;2.77;1.80;;;;;;;-3.17;100.00;99401.75;5030761;28;20458;-78
2020/12/30 06:46:07;;;;;;;5.60;3.60;;;;;;;-3.20;100.00;99401.72;5030016;28;20494;-78
2020/12/30 06:48:54;;;;;;;15.60;5.80;;;;;;;-3.24;100.00;99411.91;5033033;28;20806;-78
2020/12/30 06:51:20;;;;;;;7.07;3.73;;;;;;;-3.27;100.00;99416.97;5030193;28;20518;-78
2020/12/30 06:53:51;;;;;;;4.40;2.70;;;;;;;-3.23;100.00;99412.75;5033158;28;20467;-78
2020/12/30 06:56:35;;;;;;;7.73;2.97;;;;;;;-3.32;100.00;99420.31;5031545;28;20493;-78
2020/12/30 06:59:01;;;;;;;4.93;2.33;;;;;;;-3.35;100.00;99422.84;5031549;28;20483;-78
2020/12/30 07:01:27;;;;;;;5.20;3.10;;;;;;;-3.37;100.00;99424.50;5032339;28;20480;-78
2020/12/30 07:03:53;;;;;;;5.93;3.30;;;;;;;-3.45;100.00;99429.50;5033764;28;20483;-78
2020/12/30 07:06:30;;;;;;;3.97;2.63;;;;;;;-3.46;100.00;99431.22;5034029;28;20216;-78
2020/12/30 07:08:59;;;;;;;7.00;3.43;;;;;;;-3.39;100.00;99431.25;5031782;28;20243;-78
2020/12/30 07:11:49;;;;;;;10.53;4.50;;;;;;;-3.36;100.00;99439.84;5030701;28;20484;-78
2020/12/30 07:14:17;;;;;;;8.67;3.80;;;;;;;-3.40;100.00;99435.50;5030596;28;20464;-78
2020/12/30 07:16:46;;;;;;;9.13;2.97;;;;;;;-3.37;100.00;99443.19;5029362;28;20956;-78
2020/12/30 07:19:14;;;;;;;5.50;3.40;;;;;;;-3.44;100.00;99449.06;5030835;28;20481;-78
2020/12/30 07:21:51;;;;;;;8.37;4.57;;;;;;;-3.47;100.00;99449.88;5031343;28;20470;-78
2020/12/30 07:24:22;;;;;;;7.60;4.33;;;;;;;-3.55;100.00;99454.03;5031503;28;20509;-78
2020/12/30 07:26:50;;;;;;;6.43;3.90;;;;;;;-3.59;100.00;99448.88;5031972;28;20459;-78
2020/12/30 07:29:16;;;;;;;7.07;3.30;;;;;;;-3.60;100.00;99450.59;5030548;28;20471;-78
2020/12/30 07:31:46;;;;;;;3.07;2.50;;;;;;;-3.68;100.00;99447.91;5031841;28;20479;-78
2020/12/30 07:34:14;;;;;;;4.07;2.47;;;;;;;-3.66;100.00;99445.41;5030265;28;20471;-78
2020/12/30 07:36:42;;;;;;;2.87;2.57;;;;;;;-3.69;100.00;99455.56;5032144;28;20455;-78
2020/12/30 07:39:08;;;;;;;3.57;2.17;;;;;;;-3.67;100.00;99454.75;5031426;28;20459;-78
2020/12/30 07:41:37;;;;;;;3.77;2.63;;;;;;;-3.68;100.00;99468.31;5033555;28;20509;-78
2020/12/30 07:44:04;;;;;;;3.20;2.17;;;;;;;-3.65;100.00;99470.06;5032280;28;20196;-78
2020/12/30 07:46:30;;;;;;;4.03;2.70;;;;;;;-3.64;100.00;99469.19;5055843;28;20491;-78
2020/12/30 07:49:07;;;;;;;3.13;2.60;;;;;;;-3.61;100.00;99459.06;5035953;28;20471;-78
2020/12/30 07:51:33;;;;;;;3.70;2.27;;;;;;;-3.59;100.00;99459.06;5057579;28;20495;-78
2020/12/30 07:53:58;;;;;;;5.57;2.90;;;;;;;-3.55;100.00;99459.13;5027441;28;20463;-78
2020/12/30 07:56:25;;;;;;;4.07;2.67;;;;;;;-3.50;100.00;99466.81;5034199;28;20611;-78
2020/12/30 07:58:51;;;;;;;5.97;4.17;;;;;;;-3.46;100.00;99472.00;5031723;28;20683;-78
2020/12/30 08:01:18;;;;;;;5.70;3.60;;;;;;;-3.39;100.00;99466.94;5031627;28;20475;-78
2020/12/30 08:03:44;;;;;;;4.33;2.87;;;;;;;-3.34;100.00;99467.84;5032129;28;20455;-78
2020/12/30 08:06:10;;;;;;;5.77;3.67;;;;;;;-3.26;100.00;99476.47;5033463;28;20541;-78
2020/12/30 08:08:41;;;;;;;3.23;2.30;;;;;;;-3.20;100.00;99473.13;5034406;28;20205;-78
2020/12/30 08:11:07;;;;;;;4.10;2.00;;;;;;;-3.13;100.00;99478.31;5032524;28;20519;-78
2020/12/30 08:13:33;;;;;;;3.90;2.30;;;;;;;-2.99;100.00;99485.25;5031377;28;20883;-78
2020/12/30 08:15:59;;;;;;;4.20;2.33;;;;;;;-2.88;100.00;99479.44;5033332;28;20456;-78
2020/12/30 08:18:25;;;;;;;4.93;2.77;;;;;;;-2.75;100.00;99480.38;5031483;28;20216;-78
2020/12/30 08:20:51;;;;;;;4.37;2.50;;;;;;;-2.63;100.00;99479.66;5032184;28;20457;-78
2020/12/30 08:23:18;;;;;;;4.43;2.43;;;;;;;-2.52;100.00;99480.59;5032540;28;20229;-78
2020/12/30 08:25:47;;;;;;;5.63;2.17;;;;;;;-2.44;100.00;99484.94;5032511;28;20237;-78
2020/12/30 08:28:13;;;;;;;4.73;2.03;;;;;;;-2.37;100.00;99487.53;5033674;28;20457;-78
2020/12/30 08:30:40;;;;;;;3.17;2.07;;;;;;;-2.31;100.00;99490.13;5032652;28;20465;-78
2020/12/30 08:33:10;;;;;;;2.90;2.40;;;;;;;-2.20;100.00;99507.22;5032131;28;20496;-78
2020/12/30 08:35:40;;;;;;;4.90;2.37;;;;;;;-2.11;100.00;99510.72;5032480;28;20200;-78
2020/12/30 08:38:11;;;;;;;4.97;2.77;;;;;;;-2.03;100.00;99505.66;5031367;28;20204;-78
2020/12/30 08:40:39;;;;;;;7.87;4.23;;;;;;;-1.89;100.00;99502.34;5032349;28;20765;-78
2020/12/30 08:43:19;;;;;;;7.83;4.10;;;;;;;-1.79;100.00;99510.09;5031327;28;20250;-78
2020/12/30 08:46:00;;;;;;;5.73;3.60;;;;;;;-1.72;100.00;99516.09;5035245;28;20466;-78
2020/12/30 08:48:30;;;;;;;5.50;3.83;;;;;;;-1.63;100.00;99528.91;5036100;28;20207;-78
2020/12/30 08:50:56;;;;;;;6.90;3.50;;;;;;;-1.55;100.00;99524.72;5040392;28;20215;-78
2020/12/30 08:53:38;;;;;;;5.57;3.47;;;;;;;-1.49;100.00;99520.47;5041614;28;20232;-78
2020/12/30 08:56:05;;;;;;;5.43;3.47;;;;;;;-1.39;100.00;99523.09;5043113;28;20199;-78
2020/12/30 08:58:31;;;;;;;7.33;4.37;;;;;;;-1.28;100.00;99519.72;5044239;28;20259;-78
2020/12/30 09:00:57;;;;;;;13.13;6.40;;;;;;;-1.19;100.00;99524.88;5040876;28;20194;-78
2020/12/30 09:03:28;;;;;;;13.17;7.00;;;;;;;-1.06;99.86;99525.75;5040582;28;20215;-78
2020/12/30 09:05:57;;;;;;;10.80;7.23;;;;;;;-0.92;99.60;99528.38;5028990;28;20537;-78
2020/12/30 09:08:24;;;;;;;10.23;6.33;;;;;;;-0.79;98.91;99530.13;5026821;28;20305;-78
2020/12/30 09:10:50;;;;;;;6.03;3.87;;;;;;;-0.64;98.19;99532.69;5055260;28;20197;-78
2020/12/30 09:13:18;;;;;;;8.70;4.40;;;;;;;-0.55;97.76;99529.31;5027576;28;20755;-78
2020/12/30 09:15:45;;;;;;;6.97;4.30;;;;;;;-0.43;96.67;99534.44;5052309;28;20192;-78
2020/12/30 09:18:12;;;;;;;10.07;5.23;;;;;;;-0.31;96.19;99537.88;5025393;28;20208;-78
2020/12/30 09:20:40;;;;;;;38.77;15.73;;;;;;;-0.23;96.05;99543.84;5027842;28;20199;-78
2020/12/30 09:23:06;;;;;;;40.10;16.47;;;;;;;-0.07;94.88;99534.44;5028742;28;20234;-78
2020/12/30 09:25:35;;;;;;;24.17;11.10;;;;;;;0.07;94.88;99532.75;5026846;28;20192;-78
2020/12/30 09:28:01;;;;;;;25.30;11.70;;;;;;;0.21;94.09;99537.84;5026827;28;20258;-78
2020/12/30 09:30:28;;;;;;;8.60;5.07;;;;;;;0.32;93.16;99542.97;5028046;28;20673;-78
2020/12/30 09:32:55;;;;;;;5.90;3.23;;;;;;;0.43;91.54;99541.22;5024802;28;20236;-78
2020/12/30 09:35:27;;;;;;;8.70;4.10;;;;;;;0.47;91.78;99534.38;5027298;28;20225;-78
2020/12/30 09:37:56;;;;;;;6.83;3.70;;;;;;;0.50;90.94;99532.66;5054523;28;20208;-78
2020/12/30 09:40:23;;;;;;;6.30;3.50;;;;;;;0.54;91.26;99538.63;5031572;28;20205;-78
2020/12/30 09:42:49;;;;;;;6.87;3.83;;;;;;;0.56;90.87;99532.66;5028105;28;20288;-78
2020/12/30 09:45:17;;;;;;;5.70;3.47;;;;;;;0.56;90.76;99530.09;5031502;28;20227;-78
2020/12/30 09:47:43;;;;;;;5.73;3.60;;;;;;;0.59;90.29;99529.22;5030463;28;20204;-78
2020/12/30 09:50:12;;;;;;;8.67;5.17;;;;;;;0.61;90.47;99535.19;5031267;28;20658;-78
2020/12/30 09:52:40;;;;;;;6.03;4.07;;;;;;;0.65;89.64;99531.78;5028284;28;20245;-78
2020/12/30 09:55:08;;;;;;;10.33;4.27;;;;;;;0.68;89.52;99528.34;5043713;28;20200;-78
2020/12/30 09:57:34;;;;;;;5.07;3.57;;;;;;;0.73;89.36;99524.06;5027750;28;20215;-78
2020/12/30 10:00:00;;;;;;;5.70;3.53;;;;;;;0.77;88.98;99524.88;5030492;28;20198;-78
2020/12/30 10:02:26;;;;;;;6.10;3.87;;;;;;;0.82;89.08;99531.72;5028324;28;20235;-78
2020/12/30 10:04:52;;;;;;;5.47;3.30;;;;;;;0.83;89.06;99525.72;5027573;28;20206;-78
2020/12/30 10:07:18;;;;;;;8.50;4.20;;;;;;;0.85;88.86;99530.84;5029317;28;20218;-78
2020/12/30 10:09:44;;;;;;;7.47;3.20;;;;;;;0.91;88.24;99530.81;5027746;28;20207;-78
2020/12/30 10:12:10;;;;;;;4.80;2.40;;;;;;;0.94;88.26;99529.09;5027736;28;20225;-78
2020/12/30 10:14:36;;;;;;;5.40;3.00;;;;;;;1.01;87.69;99532.47;5055769;28;20701;-78
2020/12/30 10:17:02;;;;;;;3.97;2.60;;;;;;;1.03;87.59;99532.47;5030449;28;20285;-78
2020/12/30 10:19:28;;;;;;;7.40;3.10;;;;;;;1.08;87.38;99534.16;5029093;28;20215;-78
2020/12/30 10:21:54;;;;;;;4.80;2.70;;;;;;;1.12;86.72;99533.28;5027815;28;20222;-78
2020/12/30 10:24:20;;;;;;;6.20;2.80;;;;;;;1.13;86.87;99529.84;5027315;28;20618;-78
2020/12/30 10:26:46;;;;;;;6.33;2.40;;;;;;;1.21;86.28;99532.38;5030178;28;20325;-78
2020/12/30 10:29:12;;;;;;;3.83;2.60;;;;;;;1.28;86.18;99533.19;5026393;28;20708;-78
2020/12/30 10:31:38;;;;;;;4.13;2.50;;;;;;;1.35;85.86;99528.88;5031884;28;20656;-78
2020/12/30 10:34:04;;;;;;;5.57;2.10;;;;;;;1.46;85.25;99535.66;5027955;28;20215;-78
2020/12/30 10:36:32;;;;;;;3.20;1.83;;;;;;;1.51;85.17;99533.06;5031992;28;20198;-78
2020/12/30 10:39:00;;;;;;;6.23;2.07;;;;;;;1.64;84.33;99538.97;5021641;28;20370;-78
2020/12/30 10:41:26;;;;;;;3.50;2.47;;;;;;;1.62;84.42;99533.84;5028593;28;20572;-78
2020/12/30 10:43:52;;;;;;;4.03;1.90;;;;;;;1.66;84.07;99532.94;5030566;28;20202;-78
2020/12/30 10:46:19;;;;;;;3.37;1.90;;;;;;;1.73;83.82;99536.34;5031189;28;20287;-78
2020/12/30 10:48:46;;;;;;;16.00;7.27;;;;;;;1.86;82.68;99539.66;5029782;28;20201;-78
2020/12/30 10:51:14;;;;;;;5.17;2.80;;;;;;;1.87;82.94;99541.38;5031553;28;20224;-78
2020/12/30 10:53:40;;;;;;;3.50;2.57;;;;;;;1.87;83.10;99536.22;5027645;28;20672;-78
2020/12/30 10:56:08;;;;;;;2.70;1.77;;;;;;;1.94;82.16;99537.88;5030582;28;20203;-78
2020/12/30 10:58:33;;;;;;;2.90;1.97;;;;;;;2.01;82.13;99536.97;5023710;28;20205;-78
2020/12/30 11:00:59;;;;;;;3.33;1.93;;;;;;;2.00;82.52;99545.53;5029572;28;20221;-77
2020/12/30 11:03:26;;;;;;;4.70;2.13;;;;;;;1.98;82.48;99542.13;5028637;28;20209;-77
2020/12/30 11:05:52;;;;;;;3.87;1.77;;;;;;;2.04;82.17;99542.09;5030229;28;20210;-78
2020/12/30 11:08:18;;;;;;;3.90;2.20;;;;;;;2.10;81.40;99543.75;5023523;28;20196;-77
2020/12/30 11:10:43;;;;;;;2.70;1.63;;;;;;;2.09;81.65;99531.75;5035446;28;20202;-80
2020/12/30 11:13:09;;;;;;;3.20;1.47;;;;;;;2.14;81.91;99532.56;5036340;28;20276;-79
2020/12/30 11:15:35;;;;;;;3.53;1.83;;;;;;;2.19;81.86;99525.66;5034784;28;20195;-79
2020/12/30 11:18:02;;;;;;;7.70;2.10;;;;;;;2.24;81.28;99521.31;5037012;28;20258;-79
2020/12/30 11:20:29;;;;;;;2.53;1.50;;;;;;;2.24;81.31;99525.63;5034023;28;20277;-79
2020/12/30 11:22:55;;;;;;;3.53;1.83;;;;;;;2.27;81.25;99516.16;5035216;28;20219;-78
2020/12/30 11:25:20;;;;;;;2.53;1.60;;;;;;;2.31;81.00;99518.69;5032903;28;20202;-80
2020/12/30 11:27:47;;;;;;;2.40;1.60;;;;;;;2.36;80.69;99519.50;5033875;28;20206;-79
2020/12/30 11:30:14;;;;;;;2.93;2.03;;;;;;;2.39;80.07;99516.88;5030522;28;20264;-79
2020/12/30 11:32:40;;;;;;;3.40;1.50;;;;;;;2.42;80.51;99516.84;5029334;28;23465;-79